05:59
Airports
History
Links
Donate
Help keep this website running!
PayPal
Bitcoin
This page is community maintained. The information is intended for PC simulator navigation or reference.
Always use approved charts for navigation.
LIBP
PESCARAEdited 07-Mar-2012
PESCARA (LIBP)
Pescara, Abruzzi, Italy (65128)
(C)
Lat/Lng:42° 25' 52.47" N / 14° 10' 58.62" E
42.431242 / 14.182951
Elevation:48'ft / 15mMSL
ID / ICAO:LIBP
Runways:1
Longest:04-22
Asphalt 2,414m / 7,920ft
Controlled:Yes
Beacon:White-Green
(Edited 2012-03-07) [ Sign in to Edit ]
METAR04:50 GMT 2017-11-20
Altimeter: 30.12
Visibility: 6.2 statute miles
Wind: 4 knots (from 200°)
Temp: 6°c / 43°f
Humidity: 81.0%

METAR: LIBP 200450Z AUTO 20004KT 9999 NCD 06/03 Q1020

(Powered by phpweather)
Airport Radio Frequencies
Tower: 118.45
Approach: 120.05
Nearby VORs <50NM
Nearby NDBs
Runway 04 / 22
Dimensions:2414 x 45.1m 7920' x 148'ft
Surface:Asphalt
Edge Lights:High intensity
Runway 04 [A]Runway 22 [B]
Heading:037°TH 217°TH
Lat:
Lng:
42° 25' 21.41"N
14° 10' 26.38"E
42° 26' 23.53"N
14° 11' 30.87"E
ALS:Calvert
TDZ:Yes, lighted
User Notes and Comments
42° 25' 52.47" N / 14° 10' 58.62" E
Distance To
Airport ID:
Nearby Airports
(C) Aeroporto dei Parchi 44.7 NM
LIAP W 265°
4 Rieti 68.0 NM
LIQN ( WX ) W 269°
(U) Aquino 69.6 NM
LIAQ SSW 200°
4 Frosinone 70.7 NM
LIRH ( WX ) SW 219°
(C) GUIDONIA 80.0 NM
LIRG ( WX ) WSW 247°
4 Foligno 82.4 NM
LIAF WNW 294°
(C) LATINA 89.7 NM
LIRL ( WX ) SW 226°
VFR Chart
Flight Planning at SkyVector.com